Time;durP1;ratioP1;P1;durP2;ratioP2;P2;SDS_P1;SDS_P2;PMS_P1;PMS_P2;Temp;Humidity;BMP_temperature;BMP_pressure;BME280_temperature;BME280_humidity;BME280_pressure;Samples;Min_cycle;Max_cycle;Signal;HPM_P1;HPM_P2
2023/06/17 00:01:42;;;;;;;6.63;6.05;;;;;;;15.51;72.17;98205.72;5014012;28;20062;-77
2023/06/17 00:04:08;;;;;;;7.25;6.55;;;;;;;15.57;71.67;98204.59;4968134;28;20029;-77
2023/06/17 00:06:33;;;;;;;6.80;6.20;;;;;;;15.40;71.88;98204.09;4967897;28;20353;-77
2023/06/17 00:08:59;;;;;;;7.88;7.03;;;;;;;15.28;72.52;98198.97;5007483;28;20087;-77
2023/06/17 00:11:28;;;;;;;8.75;7.57;;;;;;;15.15;72.98;98203.03;5008046;28;20045;-76
2023/06/17 00:13:54;;;;;;;7.75;7.15;;;;;;;15.29;72.84;98202.47;4984859;28;20018;-76
2023/06/17 00:16:20;;;;;;;8.90;8.00;;;;;;;15.52;71.60;98201.94;4967496;28;20034;-77
2023/06/17 00:18:47;;;;;;;7.32;6.72;;;;;;;15.75;70.78;98193.16;4996807;28;20088;-78
2023/06/17 00:21:13;;;;;;;7.93;7.15;;;;;;;15.74;70.61;98189.63;4979584;28;20038;-77
2023/06/17 00:23:39;;;;;;;8.68;7.70;;;;;;;15.54;71.34;98188.88;4984361;28;20030;-77
2023/06/17 00:26:05;;;;;;;8.35;7.60;;;;;;;15.17;72.58;98191.91;5000806;28;20045;-77
2023/06/17 00:28:30;;;;;;;10.43;9.40;;;;;;;14.81;74.15;98191.13;4996758;28;20123;-77
2023/06/17 00:30:55;;;;;;;12.95;12.05;;;;;;;14.84;74.11;98189.78;4982437;28;20034;-77
2023/06/17 00:33:21;;;;;;;13.23;12.43;;;;;;;14.91;73.87;98190.31;4965611;28;20117;-77
2023/06/17 00:35:47;;;;;;;14.23;13.23;;;;;;;14.79;74.32;98187.88;4987989;28;20035;-78
2023/06/17 00:38:12;;;;;;;14.65;13.65;;;;;;;14.95;73.77;98184.09;5006645;28;20033;-77
2023/06/17 00:40:37;;;;;;;13.13;12.07;;;;;;;15.00;72.60;98178.66;4970763;28;20125;-77
2023/06/17 00:43:03;;;;;;;11.88;10.98;;;;;;;15.02;72.54;98184.63;4998724;28;20499;-77
2023/06/17 00:45:29;;;;;;;11.15;10.35;;;;;;;15.13;71.83;98178.09;4963894;28;20030;-77
2023/06/17 00:47:54;;;;;;;10.95;10.15;;;;;;;15.17;71.64;98179.16;4973205;28;20373;-77
2023/06/17 00:50:20;;;;;;;10.05;9.35;;;;;;;15.17;71.75;98175.63;4991852;28;20041;-76
2023/06/17 00:52:46;;;;;;;11.00;9.57;;;;;;;15.14;71.59;98178.91;4990699;28;20026;-78
2023/06/17 00:55:11;;;;;;;9.55;8.85;;;;;;;15.16;71.39;98180.25;4976049;28;20530;-77
2023/06/17 00:57:38;;;;;;;8.82;8.15;;;;;;;15.13;71.54;98180.81;5000646;28;20014;-77
2023/06/17 01:00:12;;;;;;;9.30;8.50;;;;;;;15.07;71.12;98171.06;5006531;28;20030;-77
2023/06/17 01:02:40;;;;;;;8.88;7.97;;;;;;;14.99;71.50;98171.59;4985428;28;20038;-77
2023/06/17 01:05:11;;;;;;;9.60;8.43;;;;;;;14.98;71.00;98180.03;4981956;28;20034;-77
2023/06/17 01:07:42;;;;;;;8.73;8.02;;;;;;;14.90;71.60;98178.66;4980351;28;20041;-76
2023/06/17 01:10:41;;;;;;;8.43;7.70;;;;;;;14.99;71.28;98171.59;5004728;28;20117;-77
2023/06/17 01:13:06;;;;;;;8.45;7.72;;;;;;;14.92;71.29;98176.47;4995428;28;20395;-77
2023/06/17 01:15:34;;;;;;;7.25;6.63;;;;;;;14.83;71.12;98172.69;4983779;28;20045;-78
2023/06/17 01:18:00;;;;;;;8.23;7.53;;;;;;;14.78;71.94;98169.97;4966419;28;20480;-77
2023/06/17 01:20:26;;;;;;;10.10;9.20;;;;;;;14.76;71.53;98166.75;4984260;28;20109;-78
2023/06/17 01:22:55;;;;;;;8.60;7.90;;;;;;;14.60;71.79;98170.53;4982770;28;20113;-78
2023/06/17 01:25:25;;;;;;;8.98;8.27;;;;;;;14.56;71.53;98161.31;5004425;28;20030;-77
2023/06/17 01:27:54;;;;;;;9.45;8.55;;;;;;;14.51;71.75;98158.59;5001399;28;20033;-77
2023/06/17 01:30:20;;;;;;;9.70;9.00;;;;;;;14.46;72.06;98155.91;4955584;28;20498;-77
2023/06/17 01:32:45;;;;;;;10.77;9.82;;;;;;;14.42;72.84;98160.22;4978215;28;20121;-77
2023/06/17 01:35:13;;;;;;;11.02;10.02;;;;;;;14.66;72.45;98158.59;4970841;28;20424;-77
2023/06/17 01:38:01;;;;;;;11.18;10.38;;;;;;;14.61;72.54;98155.88;4973067;28;20037;-77
2023/06/17 01:40:28;;;;;;;12.95;12.05;;;;;;;14.53;72.79;98151.03;4976188;28;20038;-75
2023/06/17 01:42:53;;;;;;;15.00;13.82;;;;;;;14.31;74.25;98158.56;4988620;28;20062;-76
2023/06/17 01:45:19;;;;;;;15.75;14.55;;;;;;;14.32;74.11;98165.63;4971874;28;20470;-77
2023/06/17 01:47:45;;;;;;;15.93;14.93;;;;;;;14.51;73.54;98166.75;4950290;28;20030;-77
2023/06/17 01:50:10;;;;;;;14.90;13.90;;;;;;;14.46;73.22;98150.47;4968846;28;20056;-77
2023/06/17 01:52:36;;;;;;;14.15;13.07;;;;;;;14.49;72.97;98149.94;4996427;28;20061;-78
2023/06/17 01:55:03;;;;;;;15.05;14.05;;;;;;;14.32;73.97;98149.38;4967415;28;20399;-77
2023/06/17 01:57:30;;;;;;;15.43;14.43;;;;;;;14.24;74.01;98157.97;4994806;28;20026;-77
2023/06/17 01:59:56;;;;;;;16.20;15.05;;;;;;;14.23;73.83;98165.31;4986135;28;20034;-78
2023/06/17 02:02:23;;;;;;;17.33;16.13;;;;;;;13.91;75.02;98161.19;4998366;28;20502;-78
2023/06/17 02:04:50;;;;;;;17.10;16.00;;;;;;;13.99;74.35;98160.66;4968511;28;20046;-77
2023/06/17 02:07:18;;;;;;;16.90;15.80;;;;;;;14.05;73.66;98163.09;4952147;28;20456;-76
2023/06/17 02:09:44;;;;;;;15.18;14.27;;;;;;;13.99;73.61;98160.66;4991908;28;20073;-78
2023/06/17 02:12:11;;;;;;;15.85;14.85;;;;;;;13.78;74.06;98159.78;4981772;28;20025;-77
2023/06/17 02:14:37;;;;;;;15.35;14.27;;;;;;;13.77;74.15;98164.38;4965613;28;20030;-77
2023/06/17 02:17:02;;;;;;;16.67;15.68;;;;;;;13.66;74.11;98161.91;4982092;28;20021;-78
2023/06/17 02:19:31;;;;;;;16.13;15.13;;;;;;;13.70;74.17;98163.81;5006212;28;20450;-78
2023/06/17 02:21:58;;;;;;;18.55;17.25;;;;;;;13.51;75.11;98162.63;4997131;28;20052;-78
2023/06/17 02:24:24;;;;;;;21.73;20.33;;;;;;;13.39;75.97;98163.94;4969238;28;20725;-77
2023/06/17 02:26:50;;;;;;;22.27;20.98;;;;;;;13.19;76.35;98167.34;4989424;28;20026;-77
2023/06/17 02:29:16;;;;;;;30.30;28.67;;;;;;;12.88;79.16;98166.28;4986769;28;20521;-77
2023/06/17 02:31:42;;;;;;;34.50;32.70;;;;;;;12.90;78.63;98164.19;4982486;28;20472;-77
2023/06/17 02:34:07;;;;;;;38.90;36.90;;;;;;;12.78;80.06;98154.63;4977944;28;20032;-77
2023/06/17 02:36:32;;;;;;;33.92;32.13;;;;;;;12.97;77.86;98163.94;5003883;28;20369;-77
2023/06/17 02:38:58;;;;;;;26.42;25.10;;;;;;;13.02;76.48;98166.69;4988309;28;20034;-77
2023/06/17 02:41:24;;;;;;;26.77;25.10;;;;;;;12.95;76.44;98157.97;4965506;28;20032;-77
2023/06/17 02:43:49;;;;;;;23.77;22.48;;;;;;;13.04;76.18;98161.81;4981277;28;20042;-77
2023/06/17 02:46:15;;;;;;;21.88;20.70;;;;;;;13.13;75.70;98154.88;4988057;28;20069;-75
2023/06/17 02:48:41;;;;;;;20.83;19.73;;;;;;;13.14;74.83;98154.59;5005194;28;20062;-76
2023/06/17 02:51:07;;;;;;;19.42;18.30;;;;;;;13.14;75.05;98157.31;4984126;28;20535;-76
2023/06/17 02:53:33;;;;;;;18.73;17.67;;;;;;;13.14;74.78;98153.78;4974611;28;20030;-76
2023/06/17 02:56:00;;;;;;;19.33;18.13;;;;;;;13.16;74.74;98151.66;4971885;28;20023;-76
2023/06/17 02:58:26;;;;;;;18.58;17.48;;;;;;;13.26;74.63;98154.41;4974997;28;20796;-76
2023/06/17 03:00:55;;;;;;;24.80;23.50;;;;;;;12.80;77.29;98158.69;4971555;28;20109;-76
2023/06/17 03:03:33;;;;;;;27.58;25.88;;;;;;;12.79;77.51;98159.75;4971423;28;20030;-77
2023/06/17 03:06:05;;;;;;;22.25;20.95;;;;;;;13.10;75.96;98158.09;4984745;28;20051;-78
2023/06/17 03:08:33;;;;;;;21.40;19.80;;;;;;;13.20;75.41;98163.56;5004498;28;20038;-77
2023/06/17 03:11:02;;;;;;;25.80;24.40;;;;;;;12.93;77.10;98157.41;4984987;28;20080;-78
2023/06/17 03:13:29;;;;;;;23.90;22.58;;;;;;;12.85;77.21;98160.59;4979995;28;20044;-78
2023/06/17 03:15:58;;;;;;;24.38;22.88;;;;;;;12.72;77.34;98156.44;4968836;28;20036;-77
2023/06/17 03:18:24;;;;;;;22.20;20.90;;;;;;;12.89;75.82;98157.13;4966228;28;20039;-76
2023/06/17 03:20:53;;;;;;;21.58;20.38;;;;;;;13.06;75.56;98152.41;4987076;28;20026;-77
2023/06/17 03:23:20;;;;;;;21.58;20.05;;;;;;;13.19;75.61;98159.22;4952430;28;20037;-77
2023/06/17 03:25:48;;;;;;;21.40;20.20;;;;;;;12.83;76.93;98171.69;4954120;28;20036;-77
2023/06/17 03:28:14;;;;;;;26.30;24.90;;;;;;;12.64;77.77;98164.22;4991493;28;20062;-77
2023/06/17 03:30:42;;;;;;;30.25;28.65;;;;;;;12.44;78.54;98165.69;4970943;28;20511;-77
2023/06/17 03:33:09;;;;;;;35.72;33.83;;;;;;;12.46;78.97;98168.16;4968288;28;20046;-77
2023/06/17 03:35:35;;;;;;;31.25;29.48;;;;;;;12.64;77.61;98159.66;5001911;28;20057;-77
2023/06/17 03:38:01;;;;;;;27.02;25.63;;;;;;;12.68;77.08;98154.53;4984076;28;20112;-76
2023/06/17 03:40:27;;;;;;;25.25;23.92;;;;;;;12.80;76.17;98157.88;4969149;28;20048;-77
2023/06/17 03:42:54;;;;;;;24.73;23.27;;;;;;;12.86;76.31;98156.84;4974764;28;20520;-77
2023/06/17 03:45:20;;;;;;;25.38;23.92;;;;;;;12.79;76.43;98156.25;5003264;28;20473;-77
2023/06/17 03:47:47;;;;;;;27.55;26.15;;;;;;;12.97;77.50;98161.25;4981411;28;20399;-77
2023/06/17 03:50:12;;;;;;;27.50;25.98;;;;;;;12.69;78.46;98150.75;4982358;28;20028;-79
2023/06/17 03:52:38;;;;;;;25.88;24.48;;;;;;;12.97;76.96;98163.94;4981943;28;20423;-78
2023/06/17 03:55:04;;;;;;;26.45;24.95;;;;;;;12.66;78.00;98156.69;4973883;28;20030;-78
2023/06/17 03:57:29;;;;;;;30.10;28.33;;;;;;;12.48;78.84;98155.97;5011300;28;20022;-78
2023/06/17 03:59:56;;;;;;;26.98;25.48;;;;;;;12.82;77.23;98155.72;4971334;28;20026;-78
2023/06/17 04:02:22;;;;;;;26.13;24.63;;;;;;;12.90;76.73;98149.84;4996981;28;20103;-77
2023/06/17 04:04:51;;;;;;;26.02;24.45;;;;;;;13.02;76.20;98150.47;4984742;28;20045;-76
2023/06/17 04:07:16;;;;;;;24.60;23.10;;;;;;;12.79;76.41;98115.72;5435358;23;20047;-77
2023/06/17 04:10:17;;;;;;;23.50;22.20;;;;;;;12.72;76.96;98134.03;5033331;28;20022;-76
2023/06/17 04:12:43;;;;;;;24.15;22.73;;;;;;;12.71;76.44;98122.41;5016787;28;20041;-78
2023/06/17 04:18:15;;;;;;;25.23;23.75;;;;;;;12.93;76.48;98149.28;5115039;23;20091;-76
2023/06/17 04:20:41;;;;;;;26.40;24.90;;;;;;;12.78;77.62;98154.63;5016732;28;20562;-75
2023/06/17 04:23:06;;;;;;;26.15;24.65;;;;;;;12.84;77.20;98153.56;5016049;28;20036;-76
2023/06/17 04:25:36;;;;;;;24.83;23.33;;;;;;;13.03;76.66;98141.25;5016528;28;20041;-75
2023/06/17 04:28:07;;;;;;;22.30;21.02;;;;;;;13.33;75.86;98148.75;4998226;28;20030;-76
2023/06/17 04:30:34;;;;;;;24.38;22.98;;;;;;;13.12;76.50;98153.25;4989686;28;20433;-76
2023/06/17 04:33:00;;;;;;;27.00;25.50;;;;;;;12.80;77.55;98150.56;5002605;28;20434;-76
2023/06/17 04:35:29;;;;;;;30.65;29.05;;;;;;;12.89;77.40;98151.72;4989740;28;20065;-76
2023/06/17 04:37:56;;;;;;;30.83;29.23;;;;;;;12.86;77.80;98156.84;4993626;28;20076;-75
2023/06/17 04:40:23;;;;;;;32.75;31.10;;;;;;;12.83;78.50;98146.53;5023442;28;20037;-76
2023/06/17 04:42:49;;;;;;;30.55;28.83;;;;;;;13.17;77.08;98153.28;4986678;28;20031;-74
2023/06/17 04:45:17;;;;;;;29.48;27.90;;;;;;;13.10;77.92;98158.91;4999144;28;20030;-75
2023/06/17 04:47:44;;;;;;;28.08;26.50;;;;;;;13.28;77.12;98154.94;4986835;28;20056;-75
2023/06/17 04:50:12;;;;;;;26.02;24.63;;;;;;;13.17;77.47;98147.88;4989590;28;20041;-75
2023/06/17 04:52:44;;;;;;;29.02;27.38;;;;;;;13.09;77.91;98145.66;4999476;28;20112;-76
2023/06/17 04:55:11;;;;;;;29.88;28.17;;;;;;;12.91;78.58;98154.16;5015557;28;20056;-76
2023/06/17 04:57:37;;;;;;;35.90;34.00;;;;;;;12.73;79.89;98149.16;4999399;28;20017;-76
2023/06/17 05:00:05;;;;;;;35.33;33.13;;;;;;;12.86;79.68;98149.53;5032179;28;20057;-76
2023/06/17 05:02:31;;;;;;;31.20;29.50;;;;;;;13.24;78.03;98134.94;5003059;28;20021;-75
2023/06/17 05:04:56;;;;;;;25.42;23.70;;;;;;;13.62;77.48;98139.97;5015478;28;20037;-76
2023/06/17 05:07:22;;;;;;;25.63;24.23;;;;;;;13.80;76.96;98153.03;5008354;28;20048;-76
2023/06/17 05:09:47;;;;;;;25.70;24.30;;;;;;;13.76;77.21;98146.53;5028779;28;20107;-75
2023/06/17 05:12:13;;;;;;;28.90;27.20;;;;;;;13.73;77.92;98151.63;4999163;28;20017;-74
2023/06/17 05:14:38;;;;;;;29.17;27.48;;;;;;;13.88;77.91;98141.66;4969120;28;20056;-74
2023/06/17 05:17:04;;;;;;;25.27;23.75;;;;;;;14.19;76.18;98144.47;5008714;28;20510;-74
2023/06/17 05:19:30;;;;;;;23.90;22.38;;;;;;;14.41;75.79;98148.56;4992424;28;20041;-74
2023/06/17 05:21:56;;;;;;;26.95;25.45;;;;;;;14.52;76.39;98152.09;5008845;28;20443;-74
2023/06/17 05:24:25;;;;;;;24.00;22.60;;;;;;;14.68;75.92;98142.88;5004723;28;20503;-74
2023/06/17 05:26:50;;;;;;;22.80;21.25;;;;;;;15.02;74.69;98153.97;4999502;28;20116;-75
2023/06/17 05:29:16;;;;;;;17.63;16.52;;;;;;;15.44;72.86;98145.44;4985582;28;20034;-75
2023/06/17 05:31:43;;;;;;;17.15;15.95;;;;;;;15.30;73.39;98155.25;5015068;28;20025;-75
2023/06/17 05:34:10;;;;;;;20.80;19.50;;;;;;;15.05;75.88;98161.56;5014286;28;20037;-75
2023/06/17 05:36:35;;;;;;;23.58;21.92;;;;;;;15.31;75.61;98151.47;4969731;28;20048;-75
2023/06/17 05:39:00;;;;;;;20.65;19.35;;;;;;;15.46;75.34;98159.59;5001778;28;20038;-76
2023/06/17 05:41:26;;;;;;;20.20;18.90;;;;;;;15.61;75.12;98151.41;5008256;28;20053;-76
2023/06/17 05:43:52;;;;;;;17.90;16.85;;;;;;;15.57;74.28;98156.56;4995502;28;20040;-76
2023/06/17 05:46:18;;;;;;;16.88;15.88;;;;;;;15.79;74.04;98154.31;4994997;28;20026;-76
2023/06/17 05:48:43;;;;;;;17.40;15.90;;;;;;;16.07;73.17;98158.22;4966364;28;20087;-76
2023/06/17 05:51:09;;;;;;;17.25;16.02;;;;;;;16.05;73.26;98151.44;5007303;28;20108;-76
2023/06/17 05:53:35;;;;;;;17.52;16.50;;;;;;;16.20;73.44;98154.88;5008349;28;20478;-76
2023/06/17 05:56:01;;;;;;;15.30;14.30;;;;;;;16.33;73.11;98159.69;4998572;28;20021;-73
2023/06/17 05:58:27;;;;;;;16.40;15.10;;;;;;;16.36;72.56;98159.13;4998230;28;20029;-74
2023/06/17 06:01:01;;;;;;;14.60;13.60;;;;;;;16.24;72.56;98155.94;5014630;28;20487;-76
2023/06/17 06:03:27;;;;;;;14.90;13.90;;;;;;;16.39;72.76;98164.00;5028984;28;20033;-76
2023/06/17 06:05:52;;;;;;;15.98;14.93;;;;;;;16.57;72.51;98165.25;5002834;28;20033;-75
2023/06/17 06:08:18;;;;;;;13.43;12.20;;;;;;;16.36;72.09;98164.56;4985340;28;20121;-76
2023/06/17 06:10:43;;;;;;;13.50;12.50;;;;;;;16.23;72.51;98170.63;5032214;28;20064;-75
2023/06/17 06:13:09;;;;;;;12.95;12.00;;;;;;;16.41;71.74;98158.28;5016755;28;20042;-76
2023/06/17 06:15:35;;;;;;;13.68;12.68;;;;;;;16.79;70.96;98162.91;5006872;28;20060;-76
2023/06/17 06:18:00;;;;;;;13.15;12.15;;;;;;;17.14;69.45;98159.03;5024178;28;20083;-76
2023/06/17 06:20:27;;;;;;;10.70;9.52;;;;;;;17.15;69.43;98160.69;4985842;28;20029;-76
2023/06/17 06:22:54;;;;;;;11.27;10.48;;;;;;;17.08;70.62;98171.09;5000952;28;20479;-76
2023/06/17 06:25:19;;;;;;;11.15;10.23;;;;;;;17.30;69.64;98165.94;5006349;28;20017;-76
2023/06/17 06:27:45;;;;;;;10.80;9.95;;;;;;;17.58;68.48;98164.31;4975164;28;20104;-77
2023/06/17 06:30:12;;;;;;;10.95;9.20;;;;;;;17.72;68.60;98170.69;4978412;28;20052;-76
2023/06/17 06:32:41;;;;;;;10.02;9.18;;;;;;;17.48;69.29;98165.19;4992101;28;20038;-77
2023/06/17 06:35:09;;;;;;;9.10;8.30;;;;;;;17.36;68.84;98175.72;5029571;28;20033;-76
2023/06/17 06:37:35;;;;;;;9.60;8.70;;;;;;;17.87;67.93;98157.69;5031336;28;20029;-77
2023/06/17 06:40:00;;;;;;;10.57;9.27;;;;;;;17.24;69.15;98164.41;5006766;28;20022;-77
2023/06/17 06:42:27;;;;;;;9.63;8.57;;;;;;;17.38;68.76;98167.25;5009194;28;20109;-77
2023/06/17 06:45:06;;;;;;;8.98;7.85;;;;;;;17.59;67.44;98166.75;5003363;28;20029;-76
2023/06/17 06:47:32;;;;;;;8.68;7.88;;;;;;;17.88;67.93;98175.66;4984124;28;20479;-76
2023/06/17 06:49:57;;;;;;;8.10;7.35;;;;;;;17.62;66.63;98171.59;4988146;28;20036;-76
2023/06/17 06:52:23;;;;;;;7.78;6.97;;;;;;;17.65;65.77;98171.03;5000607;28;20033;-76
2023/06/17 06:54:48;;;;;;;8.40;6.70;;;;;;;18.45;64.66;98180.09;5037439;28;20414;-77
2023/06/17 06:57:14;;;;;;;6.70;6.05;;;;;;;18.31;63.91;98178.34;5000170;28;20121;-77
2023/06/17 06:59:39;;;;;;;7.07;6.38;;;;;;;18.15;66.04;98176.94;5010939;28;20033;-76
2023/06/17 07:02:05;;;;;;;7.90;7.13;;;;;;;18.71;63.02;98177.78;5007168;28;20041;-77
2023/06/17 07:04:30;;;;;;;7.18;6.47;;;;;;;18.43;63.67;98181.47;4993110;28;20049;-77
2023/06/17 07:06:59;;;;;;;8.52;6.88;;;;;;;18.04;63.74;98184.44;5029905;28;20034;-77
2023/06/17 07:09:30;;;;;;;6.95;6.25;;;;;;;18.44;64.20;98188.50;4996244;28;20036;-77
2023/06/17 07:11:55;;;;;;;8.00;7.22;;;;;;;18.80;63.32;98192.38;5007056;28;20040;-77
2023/06/17 07:14:22;;;;;;;6.70;6.10;;;;;;;18.72;62.85;98189.50;4992650;28;20483;-77
2023/06/17 07:16:48;;;;;;;8.32;6.47;;;;;;;18.73;62.26;98186.47;4997985;28;20044;-77
2023/06/17 07:19:14;;;;;;;8.63;5.80;;;;;;;19.26;60.67;98192.38;5021904;28;20025;-77
2023/06/17 07:21:39;;;;;;;8.30;5.53;;;;;;;19.07;61.46;98197.91;5003897;28;20084;-75
2023/06/17 07:24:05;;;;;;;6.38;5.78;;;;;;;19.02;61.26;98199.94;5001482;28;20028;-75
2023/06/17 07:26:30;;;;;;;6.43;5.68;;;;;;;18.93;61.40;98196.25;5003603;28;20076;-76
2023/06/17 07:28:56;;;;;;;11.75;6.40;;;;;;;19.02;58.83;98189.81;5001770;28;20026;-77
2023/06/17 07:31:22;;;;;;;7.13;6.25;;;;;;;19.45;58.81;98186.88;5010267;28;20083;-77
2023/06/17 07:33:48;;;;;;;6.40;5.72;;;;;;;19.15;59.94;98193.69;5003221;28;20021;-77
2023/06/17 07:36:13;;;;;;;8.15;6.25;;;;;;;18.82;61.02;98198.34;4994050;28;20453;-77
2023/06/17 07:38:38;;;;;;;6.55;5.90;;;;;;;19.46;59.25;98188.53;4981211;28;20500;-77
2023/06/17 07:41:04;;;;;;;6.75;5.85;;;;;;;19.70;59.13;98183.66;5018545;28;20072;-77
2023/06/17 07:43:30;;;;;;;8.80;6.50;;;;;;;19.58;58.97;98186.13;4996514;28;20433;-77
2023/06/17 07:45:56;;;;;;;8.55;6.68;;;;;;;19.54;58.33;98185.06;5003573;28;20045;-77
2023/06/17 07:48:21;;;;;;;6.70;6.10;;;;;;;19.66;57.72;98182.66;5020158;28;20025;-77
2023/06/17 07:50:47;;;;;;;7.72;6.55;;;;;;;19.85;56.22;98197.03;5048908;28;20480;-77
2023/06/17 07:53:13;;;;;;;9.27;6.43;;;;;;;20.10;57.04;98177.38;5037094;28;20108;-77
2023/06/17 07:55:39;;;;;;;11.45;7.18;;;;;;;19.78;57.46;98180.22;5019804;28;20530;-77
2023/06/17 07:58:04;;;;;;;8.95;6.70;;;;;;;19.95;57.05;98185.91;5005849;28;20033;-77
2023/06/17 08:00:29;;;;;;;7.03;6.05;;;;;;;19.89;57.42;98184.38;5023182;28;20040;-77
2023/06/17 08:02:55;;;;;;;7.47;6.68;;;;;;;19.92;57.62;98175.56;5013011;28;20075;-78
2023/06/17 08:05:20;;;;;;;7.97;6.65;;;;;;;20.39;56.32;98179.78;5017553;28;20112;-77
2023/06/17 08:07:46;;;;;;;8.00;6.07;;;;;;;21.07;55.29;98166.66;5006847;28;20476;-77
2023/06/17 08:10:11;;;;;;;7.60;6.05;;;;;;;20.68;52.72;98167.31;4987037;28;20104;-77
2023/06/17 08:12:37;;;;;;;9.57;6.45;;;;;;;20.70;53.31;98179.88;5023655;28;20037;-77
2023/06/17 08:15:02;;;;;;;8.80;6.38;;;;;;;20.98;52.49;98176.69;4996394;28;20042;-77
2023/06/17 08:17:28;;;;;;;7.05;6.35;;;;;;;20.66;54.26;98174.19;4996728;28;20133;-78
2023/06/17 08:19:53;;;;;;;6.97;6.28;;;;;;;21.09;52.92;98169.06;5026316;28;20124;-77
2023/06/17 08:22:20;;;;;;;9.60;6.63;;;;;;;21.12;52.67;98160.25;5000231;28;20025;-77
2023/06/17 08:24:45;;;;;;;7.43;6.25;;;;;;;20.81;50.68;98170.31;5003587;28;20072;-77
2023/06/17 08:27:10;;;;;;;6.88;5.90;;;;;;;21.08;50.12;98160.03;5016377;28;20049;-77
2023/06/17 08:29:36;;;;;;;7.13;6.38;;;;;;;21.13;50.15;98161.84;4987060;28;20091;-77
2023/06/17 08:32:01;;;;;;;8.90;6.30;;;;;;;20.93;50.78;98157.69;5034064;28;20456;-77
2023/06/17 08:34:30;;;;;;;8.32;6.70;;;;;;;21.09;50.44;98155.38;5046663;28;20045;-77
2023/06/17 08:36:56;;;;;;;8.90;5.70;;;;;;;21.44;49.50;98153.63;4990308;28;20108;-77
2023/06/17 08:39:21;;;;;;;6.93;6.20;;;;;;;21.50;48.38;98144.94;4996481;28;20124;-77
2023/06/17 08:41:47;;;;;;;7.13;5.85;;;;;;;21.79;48.23;98145.22;4996501;28;20508;-77
2023/06/17 08:44:13;;;;;;;8.65;6.80;;;;;;;21.63;49.57;98154.19;4998856;28;20032;-77
2023/06/17 08:46:44;;;;;;;7.32;5.82;;;;;;;21.85;49.37;98157.69;5043637;28;20021;-77
2023/06/17 08:49:13;;;;;;;5.68;5.10;;;;;;;21.65;46.08;98143.72;5006774;28;20124;-77
2023/06/17 08:51:39;;;;;;;8.57;6.13;;;;;;;21.85;45.96;98135.75;5019024;28;20018;-77
2023/06/17 08:54:05;;;;;;;7.18;6.30;;;;;;;21.98;46.41;98140.28;5014517;28;20404;-77
2023/06/17 08:56:30;;;;;;;6.50;5.90;;;;;;;21.99;45.63;98139.16;5012452;28;20029;-77
2023/06/17 08:58:56;;;;;;;6.57;5.97;;;;;;;22.24;46.00;98142.28;5013652;28;20088;-77
2023/06/17 09:01:22;;;;;;;7.78;5.57;;;;;;;22.26;44.77;98129.84;4999474;28;20451;-77
2023/06/17 09:03:51;;;;;;;10.50;5.20;;;;;;;22.70;45.03;98139.72;4998957;28;20038;-76
2023/06/17 09:06:28;;;;;;;7.72;5.88;;;;;;;22.93;44.80;98138.41;5004393;28;20034;-76
2023/06/17 09:08:55;;;;;;;9.85;5.57;;;;;;;22.79;43.74;98131.47;5046078;28;20076;-77
2023/06/17 09:11:29;;;;;;;8.07;5.30;;;;;;;22.21;42.48;98126.44;4986522;28;20128;-77
2023/06/17 09:13:56;;;;;;;7.30;5.32;;;;;;;22.80;42.40;98128.41;5002418;28;20038;-77
2023/06/17 09:16:29;;;;;;;6.45;5.53;;;;;;;22.91;42.59;98129.69;5018679;28;20018;-77
2023/06/17 09:18:59;;;;;;;6.07;5.35;;;;;;;22.88;42.00;98124.84;5018843;28;20049;-77
2023/06/17 09:21:25;;;;;;;8.20;5.63;;;;;;;23.35;40.07;98115.53;5020608;28;20042;-77
2023/06/17 09:23:55;;;;;;;6.97;4.80;;;;;;;23.96;38.14;98122.34;4990345;28;20030;-77
2023/06/17 09:26:24;;;;;;;6.25;5.32;;;;;;;23.38;38.44;98110.50;4996674;28;20092;-77
2023/06/17 09:28:49;;;;;;;8.25;5.60;;;;;;;23.74;38.78;98110.81;4988607;28;20025;-77
2023/06/17 09:31:14;;;;;;;7.07;5.30;;;;;;;23.46;38.88;98112.41;5014992;28;20540;-77
2023/06/17 09:33:43;;;;;;;6.72;5.55;;;;;;;23.51;38.19;98110.28;4998461;28;20025;-77
2023/06/17 09:36:09;;;;;;;11.23;5.57;;;;;;;24.01;38.36;98118.59;5001504;28;20399;-77
2023/06/17 09:38:38;;;;;;;10.95;5.15;;;;;;;23.46;34.67;98106.91;5025060;28;20033;-77
2023/06/17 09:41:04;;;;;;;6.10;4.97;;;;;;;23.58;34.19;98096.84;5001887;28;20041;-77
2023/06/17 09:43:30;;;;;;;5.22;4.40;;;;;;;23.57;35.53;98106.19;5004533;28;20071;-77
2023/06/17 09:45:59;;;;;;;5.90;4.70;;;;;;;24.07;34.59;98110.97;5025214;28;20045;-77
2023/06/17 09:48:32;;;;;;;7.00;4.95;;;;;;;23.77;35.61;98096.41;5004543;28;20084;-77
2023/06/17 09:50:58;;;;;;;6.28;5.07;;;;;;;23.65;34.96;98093.56;5012898;28;20033;-77
2023/06/17 09:53:27;;;;;;;7.25;4.97;;;;;;;24.27;35.14;98107.44;4987582;28;20058;-77
2023/06/17 09:55:56;;;;;;;7.07;5.22;;;;;;;24.23;35.98;98093.53;5013363;28;20120;-77
2023/06/17 09:58:22;;;;;;;8.32;5.07;;;;;;;23.43;35.09;98111.16;5015270;28;20041;-76
2023/06/17 10:00:51;;;;;;;8.85;4.90;;;;;;;23.58;36.13;98091.34;5005554;28;20097;-77
2023/06/17 10:03:17;;;;;;;8.70;4.63;;;;;;;24.11;34.62;98107.22;5037457;28;20028;-77
2023/06/17 10:05:44;;;;;;;7.22;4.95;;;;;;;24.40;33.54;98087.91;4994624;28;20030;-77
2023/06/17 10:08:10;;;;;;;7.70;5.20;;;;;;;24.26;33.26;98087.38;5011373;28;20024;-77
2023/06/17 10:10:36;;;;;;;5.50;4.93;;;;;;;24.44;32.58;98094.34;4985219;28;20049;-77
2023/06/17 10:13:04;;;;;;;7.95;4.95;;;;;;;25.02;34.62;98087.78;5027115;28;20474;-77
2023/06/17 10:15:30;;;;;;;9.57;5.30;;;;;;;25.09;31.57;98084.47;5001599;28;20076;-77
2023/06/17 10:17:55;;;;;;;5.88;4.88;;;;;;;24.80;32.49;98073.63;5027080;28;20104;-77
2023/06/17 10:20:22;;;;;;;5.85;4.95;;;;;;;24.49;32.73;98074.84;5007948;28;20049;-78
2023/06/17 10:22:54;;;;;;;7.85;5.10;;;;;;;25.33;32.79;98076.25;4991269;28;20031;-77
2023/06/17 10:25:19;;;;;;;5.47;4.65;;;;;;;24.47;32.38;98082.66;4998531;28;20042;-77
2023/06/17 10:27:57;;;;;;;5.53;4.78;;;;;;;23.87;32.53;98082.28;5027334;28;20092;-77
2023/06/17 10:30:27;;;;;;;6.82;5.15;;;;;;;24.33;33.60;98071.13;5011116;28;20157;-77
2023/06/17 10:33:02;;;;;;;6.05;4.97;;;;;;;25.03;33.21;98058.28;5008614;28;20048;-77
2023/06/17 10:35:44;;;;;;;5.75;4.90;;;;;;;25.23;32.27;98060.97;5005252;28;20037;-77
2023/06/17 10:38:27;;;;;;;7.25;4.57;;;;;;;24.67;31.95;98068.03;4978480;28;20056;-77
2023/06/17 10:40:52;;;;;;;6.38;5.18;;;;;;;25.14;32.71;98053.94;5005299;28;20034;-77
2023/06/17 10:43:19;;;;;;;6.10;4.95;;;;;;;25.24;33.33;98067.28;5021566;28;20030;-77
2023/06/17 10:45:49;;;;;;;6.07;4.97;;;;;;;25.21;33.99;98057.75;5013717;28;20033;-77
2023/06/17 10:48:27;;;;;;;6.75;5.40;;;;;;;24.55;34.17;98064.44;4994381;28;20044;-77
2023/06/17 10:51:11;;;;;;;6.38;5.78;;;;;;;25.22;33.41;98058.56;5039744;28;20120;-77
2023/06/17 10:53:37;;;;;;;11.02;5.60;;;;;;;25.03;33.17;98061.06;4978870;28;20121;-77
2023/06/17 10:56:06;;;;;;;7.10;5.57;;;;;;;25.19;33.54;98054.53;5009910;28;20151;-77
2023/06/17 10:58:36;;;;;;;8.35;6.05;;;;;;;25.43;32.58;98048.22;5015912;28;20052;-77
2023/06/17 11:01:07;;;;;;;6.60;5.32;;;;;;;25.80;32.87;98044.34;5013833;28;20055;-77
2023/06/17 11:03:33;;;;;;;5.97;5.38;;;;;;;25.35;33.59;98057.41;4983881;28;20034;-77
2023/06/17 11:06:06;;;;;;;5.97;5.18;;;;;;;25.44;32.29;98038.81;5012234;28;20026;-77
2023/06/17 11:08:32;;;;;;;7.95;5.55;;;;;;;25.85;32.11;98037.75;5010514;28;20037;-77
2023/06/17 11:11:09;;;;;;;7.13;5.53;;;;;;;25.82;32.93;98044.78;4986477;28;20392;-76
2023/06/17 11:13:35;;;;;;;7.72;5.43;;;;;;;26.27;31.62;98038.25;4991280;28;20029;-77
2023/06/17 11:16:00;;;;;;;7.75;5.65;;;;;;;25.97;32.00;98030.28;4995690;28;20037;-77
2023/06/17 11:18:26;;;;;;;7.13;4.97;;;;;;;26.60;31.26;98027.78;5011048;28;20037;-77
2023/06/17 11:20:51;;;;;;;6.25;5.13;;;;;;;25.85;31.03;98027.53;5013702;28;20021;-76
2023/06/17 11:23:17;;;;;;;6.15;5.45;;;;;;;26.05;31.44;98051.41;5012836;28;20034;-77
2023/06/17 11:25:43;;;;;;;6.85;6.15;;;;;;;26.33;31.16;98031.31;5007401;28;20445;-76
2023/06/17 11:28:08;;;;;;;8.85;5.70;;;;;;;25.42;31.27;98024.53;4999288;28;20034;-76
2023/06/17 11:30:34;;;;;;;9.07;5.43;;;;;;;24.92;31.81;98029.56;5010334;28;20030;-76